createdAt,value
2022-12-04T00:01:28.122Z,100627.91
2022-12-04T00:03:58.643Z,100631.06
2022-12-04T00:06:26.664Z,100632.03
2022-12-04T00:08:55.039Z,100617.19
2022-12-04T00:11:26.011Z,100622.56
2022-12-04T00:14:14.726Z,100613.81
2022-12-04T00:16:45.367Z,100609.34
2022-12-04T00:19:18.298Z,100608.50
2022-12-04T00:21:46.127Z,100602.28
2022-12-04T00:24:13.602Z,100599.59
2022-12-04T00:26:41.264Z,100603.00
2022-12-04T00:29:08.856Z,100591.38
2022-12-04T00:31:36.496Z,100576.69
2022-12-04T00:34:07.977Z,100557.47
2022-12-04T00:36:35.861Z,100556.81
2022-12-04T00:39:04.311Z,100547.75
2022-12-04T00:41:33.505Z,100558.13
2022-12-04T00:44:02.671Z,100547.91
2022-12-04T00:46:30.587Z,100548.72
2022-12-04T00:49:01.830Z,100546.09
2022-12-04T00:51:29.795Z,100539.19
2022-12-04T00:53:57.360Z,100537.63
2022-12-04T00:56:27.198Z,100524.31
2022-12-04T00:58:57.386Z,100536.31
2022-12-04T01:01:43.702Z,100529.22
2022-12-04T01:04:11.392Z,100529.09
2022-12-04T01:06:39.033Z,100520.22
2022-12-04T01:09:06.725Z,100523.72
2022-12-04T01:11:34.417Z,100514.97
2022-12-04T01:14:02.067Z,100509.78
2022-12-04T01:16:33.494Z,100528.91
2022-12-04T01:19:01.777Z,100504.28
2022-12-04T01:21:29.328Z,100509.69
2022-12-04T01:23:58.876Z,100505.41
2022-12-04T01:26:27.385Z,100504.28
2022-12-04T01:28:54.973Z,100497.09
2022-12-04T01:31:23.691Z,100492.94
2022-12-04T01:33:51.841Z,100483.16
2022-12-04T01:36:23.530Z,100491.00
2022-12-04T01:38:51.571Z,100490.81
2022-12-04T01:41:23.201Z,100490.94
2022-12-04T01:44:14.885Z,100491.78
2022-12-04T01:46:45.897Z,100471.56
2022-12-04T01:49:19.585Z,100481.22
2022-12-04T01:51:51.830Z,100466.00
2022-12-04T01:54:28.575Z,100456.69
2022-12-04T01:57:08.136Z,100459.91
2022-12-04T01:59:42.921Z,100457.22
2022-12-04T02:02:13.894Z,100439.72
2022-12-04T02:04:43.054Z,100439.44
2022-12-04T02:07:11.870Z,100448.28
2022-12-04T02:09:41.163Z,100436.94
2022-12-04T02:12:17.420Z,100439.16
2022-12-04T02:15:03.713Z,100435.09
2022-12-04T02:17:44.208Z,100434.06
2022-12-04T02:20:27.425Z,100438.50
2022-12-04T02:23:24.744Z,100427.88
2022-12-04T02:26:27.256Z,100426.09
2022-12-04T02:29:33.149Z,100418.28
2022-12-04T02:32:11.188Z,100409.19
2022-12-04T02:34:45.921Z,100404.03
2022-12-04T02:37:19.110Z,100402.47
2022-12-04T02:39:55.416Z,100384.50
2022-12-04T02:42:45.527Z,100394.03
2022-12-04T02:45:17.940Z,100395.81
2022-12-04T02:47:46.872Z,100385.94
2022-12-04T02:50:19.428Z,100369.16
2022-12-04T02:52:54.614Z,100356.88
2022-12-04T02:55:29.252Z,100355.03
2022-12-04T02:58:05.202Z,100351.66
2022-12-04T03:00:35.101Z,100344.66
2022-12-04T03:03:18.972Z,100352.47
2022-12-04T03:06:05.772Z,100346.81
2022-12-04T03:08:42.459Z,100342.88
2022-12-04T03:11:10.186Z,100338.97
2022-12-04T03:13:53.593Z,100330.50
2022-12-04T03:16:24.192Z,100329.88
2022-12-04T03:18:59.322Z,100328.53
2022-12-04T03:21:32.424Z,100317.66
2022-12-04T03:24:10.703Z,100312.16
2022-12-04T03:26:52.021Z,100295.63
2022-12-04T03:29:44.915Z,100309.47
2022-12-04T03:32:16.293Z,100298.53
2022-12-04T03:35:02.042Z,100301.25
2022-12-04T03:37:45.000Z,100307.22
2022-12-04T03:40:34.524Z,100297.19
2022-12-04T03:43:39.464Z,100302.09
2022-12-04T03:46:06.983Z,100291.09
2022-12-04T03:48:56.291Z,100291.97
2022-12-04T03:51:35.580Z,100291.63
2022-12-04T03:54:10.463Z,100280.13
2022-12-04T03:56:45.205Z,100277.47
2022-12-04T03:59:20.416Z,100281.59
2022-12-04T04:01:51.419Z,100271.28
2022-12-04T04:04:24.311Z,100285.06
2022-12-04T04:07:00.071Z,100279.03
2022-12-04T04:09:31.734Z,100284.97
2022-12-04T04:12:10.703Z,100283.91
2022-12-04T04:15:14.175Z,100270.25
2022-12-04T04:18:03.875Z,100274.66
2022-12-04T04:20:58.907Z,100264.72
2022-12-04T04:23:49.845Z,100266.22
2022-12-04T04:26:18.557Z,100272.03
2022-12-04T04:28:46.422Z,100262.09
2022-12-04T04:31:32.547Z,100270.13
2022-12-04T04:34:11.346Z,100273.69
2022-12-04T04:36:41.568Z,100288.81
2022-12-04T04:39:33.212Z,100283.69
2022-12-04T04:42:06.309Z,100283.97
2022-12-04T04:44:51.755Z,100271.84
2022-12-04T04:47:28.785Z,100258.84
2022-12-04T04:49:58.947Z,100266.28
2022-12-04T04:52:26.598Z,100264.97
2022-12-04T04:54:55.519Z,100260.38
2022-12-04T04:57:31.282Z,100254.28
2022-12-04T04:59:58.970Z,100258.78
2022-12-04T05:02:27.198Z,100265.75
2022-12-04T05:04:55.631Z,100260.66
2022-12-04T05:07:23.227Z,100273.16
2022-12-04T05:09:50.840Z,100263.03
2022-12-04T05:12:18.369Z,100254.53
2022-12-04T05:14:48.394Z,100247.13
2022-12-04T05:17:16.219Z,100256.75
2022-12-04T05:19:59.371Z,100244.53
2022-12-04T05:22:31.649Z,100249.59
2022-12-04T05:25:00.318Z,100238.72
2022-12-04T05:27:30.150Z,100234.53
2022-12-04T05:29:58.937Z,100238.72
2022-12-04T05:32:28.354Z,100239.41
2022-12-04T05:34:56.959Z,100232.34
2022-12-04T05:37:25.050Z,100233.75
2022-12-04T05:39:52.853Z,100236.16
2022-12-04T05:42:20.899Z,100243.09
2022-12-04T05:44:50.184Z,100242.03
2022-12-04T05:47:17.855Z,100235.66
2022-12-04T05:49:45.427Z,100234.41
2022-12-04T05:52:14.022Z,100247.38
2022-12-04T05:54:41.576Z,100241.38
2022-12-04T05:57:09.157Z,100259.25
2022-12-04T05:59:36.889Z,100274.13
2022-12-04T06:02:04.576Z,100272.09
2022-12-04T06:04:32.275Z,100266.28
2022-12-04T06:06:59.839Z,100256.41
2022-12-04T06:09:27.563Z,100253.97
2022-12-04T06:11:57.981Z,100243.28
2022-12-04T06:14:26.003Z,100242.03
2022-12-04T06:16:53.691Z,100255.59
2022-12-04T06:19:22.530Z,100258.75
2022-12-04T06:21:52.645Z,100265.38
2022-12-04T06:24:24.739Z,100273.03
2022-12-04T06:27:26.103Z,100266.19
2022-12-04T06:29:45.312Z,100263.50
2022-12-04T06:32:16.515Z,100266.03
2022-12-04T06:34:53.306Z,100261.34
2022-12-04T06:37:23.442Z,100270.38
2022-12-04T06:39:51.308Z,100289.88
2022-12-04T06:42:18.949Z,100282.63
2022-12-04T06:44:46.562Z,100284.63
2022-12-04T06:47:14.239Z,100285.63
2022-12-04T06:49:42.394Z,100281.41
2022-12-04T06:52:09.906Z,100286.44
2022-12-04T06:54:37.480Z,100283.88
2022-12-04T06:57:05.082Z,100283.78
2022-12-04T06:59:33.984Z,100290.84
2022-12-04T07:02:01.534Z,100286.59
2022-12-04T07:04:29.223Z,100284.47
2022-12-04T07:06:56.842Z,100297.38
2022-12-04T07:09:24.536Z,100276.56
2022-12-04T07:11:53.115Z,100286.25
2022-12-04T07:14:20.948Z,100285.63
2022-12-04T07:16:48.716Z,100291.56
2022-12-04T07:19:16.428Z,100306.31
2022-12-04T07:21:44.020Z,100311.31
2022-12-04T07:24:17.137Z,100319.34
2022-12-04T07:26:44.993Z,100318.00
2022-12-04T07:29:12.603Z,100323.09
2022-12-04T07:31:40.422Z,100326.69
2022-12-04T07:34:08.066Z,100323.72
2022-12-04T07:36:35.676Z,100339.59
2022-12-04T07:39:03.400Z,100335.84
2022-12-04T07:41:30.905Z,100334.09
2022-12-04T07:44:00.294Z,100334.56
2022-12-04T07:46:29.041Z,100340.16
2022-12-04T07:48:58.282Z,100343.56
2022-12-04T07:51:28.637Z,100350.31
2022-12-04T07:54:02.652Z,100347.94
2022-12-04T07:56:32.653Z,100352.53
2022-12-04T07:59:00.715Z,100344.94
2022-12-04T08:01:28.692Z,100339.84
2022-12-04T08:03:58.277Z,100360.06
2022-12-04T08:06:27.595Z,100359.97
2022-12-04T08:08:55.487Z,100366.81
2022-12-04T08:11:25.197Z,100360.06
2022-12-04T08:14:09.081Z,100372.38
2022-12-04T08:17:13.939Z,100385.38
2022-12-04T08:24:07.281Z,100409.06
2022-12-04T08:27:50.223Z,100421.16
2022-12-04T08:31:06.872Z,100418.75
2022-12-04T08:33:37.229Z,100419.09
2022-12-04T08:36:10.774Z,100415.75
2022-12-04T08:48:04.228Z,100427.69
2022-12-04T08:51:15.574Z,100426.78
2022-12-04T08:53:46.297Z,100432.84
2022-12-04T08:56:14.300Z,100439.94
2022-12-04T08:58:41.824Z,100445.88
2022-12-04T09:01:12.540Z,100442.44
2022-12-04T09:03:40.999Z,100448.59
2022-12-04T09:06:10.808Z,100448.63
2022-12-04T09:08:38.474Z,100452.06
2022-12-04T09:11:10.561Z,100467.94
2022-12-04T09:13:39.154Z,100464.56
2022-12-04T09:16:09.028Z,100476.78
2022-12-04T09:18:38.566Z,100481.00
2022-12-04T09:21:09.289Z,100484.28
2022-12-04T09:23:38.541Z,100485.13
2022-12-04T09:26:16.241Z,100483.44
2022-12-04T09:28:43.795Z,100481.56
2022-12-04T09:31:11.622Z,100475.50
2022-12-04T09:33:39.602Z,100482.50
2022-12-04T09:36:07.531Z,100484.25
2022-12-04T09:39:17.342Z,100485.16
2022-12-04T09:42:43.517Z,100491.63
2022-12-04T09:45:56.382Z,100493.06
2022-12-04T09:54:42.228Z,100482.47
2022-12-04T10:49:20.749Z,100497.13
2022-12-04T10:52:51.353Z,100505.66
2022-12-04T11:03:27.541Z,100513.47
2022-12-04T11:06:08.819Z,100511.66
2022-12-04T11:08:44.945Z,100511.72
2022-12-04T11:11:15.094Z,100518.50
2022-12-04T11:13:42.988Z,100518.59
2022-12-04T11:16:34.304Z,100519.31
2022-12-04T11:19:01.850Z,100525.34
2022-12-04T11:21:32.417Z,100532.44
2022-12-04T11:24:00.055Z,100544.63
2022-12-04T11:26:37.203Z,100537.25
2022-12-04T11:29:06.168Z,100536.72
2022-12-04T11:31:34.889Z,100533.16
2022-12-04T11:34:06.971Z,100539.75
2022-12-04T11:36:42.168Z,100538.00
2022-12-04T11:39:34.833Z,100530.47
2022-12-04T11:42:17.112Z,100529.59
2022-12-04T11:45:21.392Z,100524.03
2022-12-04T11:47:59.417Z,100531.63
2022-12-04T11:50:39.034Z,100522.09
2022-12-04T11:53:29.988Z,100526.66
2022-12-04T11:56:18.230Z,100534.59
2022-12-04T11:59:08.334Z,100543.41
2022-12-04T12:02:21.322Z,100537.25
2022-12-04T12:05:15.878Z,100539.59
2022-12-04T12:08:03.123Z,100542.63
2022-12-04T12:10:49.564Z,100543.47
2022-12-04T12:17:15.120Z,100549.03
2022-12-04T12:20:06.399Z,100563.06
2022-12-04T12:23:07.195Z,100559.13
2022-12-04T12:25:54.299Z,100553.06
2022-12-04T12:28:50.898Z,100561.06
2022-12-04T12:31:36.889Z,100570.59
2022-12-04T12:34:12.046Z,100555.41
2022-12-04T12:36:45.654Z,100571.16
2022-12-04T12:39:19.278Z,100568.06
2022-12-04T12:41:55.838Z,100566.06
2022-12-04T12:44:43.904Z,100568.78
2022-12-04T12:47:19.620Z,100563.47
2022-12-04T12:49:58.346Z,100563.63
2022-12-04T12:52:34.951Z,100567.09
2022-12-04T12:55:15.296Z,100560.06
2022-12-04T12:57:47.810Z,100565.06
2022-12-04T13:00:18.694Z,100567.03
2022-12-04T13:03:19.226Z,100566.94
2022-12-04T13:06:19.343Z,100574.56
2022-12-04T13:09:25.602Z,100576.47
2022-12-04T13:12:06.576Z,100578.34
2022-12-04T13:14:34.216Z,100591.34
2022-12-04T13:17:22.530Z,100587.97
2022-12-04T13:19:56.802Z,100586.75
2022-12-04T13:23:12.617Z,100590.56
2022-12-04T13:26:14.360Z,100588.69
2022-12-04T13:28:58.010Z,100589.66
2022-12-04T13:31:49.462Z,100596.22
2022-12-04T13:34:56.190Z,100603.72
2022-12-04T13:37:47.732Z,100617.38
2022-12-04T13:40:27.512Z,100614.25
2022-12-04T13:43:18.052Z,100632.75
2022-12-04T13:45:47.469Z,100630.00
2022-12-04T13:48:33.833Z,100628.94
2022-12-04T13:51:23.415Z,100621.03
2022-12-04T13:54:13.476Z,100631.72
2022-12-04T13:56:44.322Z,100630.69
2022-12-04T13:59:31.072Z,100645.16
2022-12-04T14:02:07.792Z,100635.44
2022-12-04T14:04:46.218Z,100630.63
2022-12-04T14:07:26.570Z,100634.25
2022-12-04T14:09:57.183Z,100631.53
2022-12-04T14:12:38.861Z,100634.22
2022-12-04T14:15:28.471Z,100639.13
2022-12-04T14:18:02.967Z,100645.53
2022-12-04T14:20:34.942Z,100645.91
2022-12-04T14:23:10.191Z,100650.69
2022-12-04T14:25:40.901Z,100657.91
2022-12-04T14:28:38.652Z,100665.81
2022-12-04T14:31:33.347Z,100670.56
2022-12-04T14:34:27.265Z,100668.91
2022-12-04T14:36:57.159Z,100680.16
2022-12-04T14:39:41.069Z,100691.31
2022-12-04T14:42:37.919Z,100687.84
2022-12-04T14:45:20.610Z,100689.66
2022-12-04T14:48:14.572Z,100693.28
2022-12-04T14:50:50.716Z,100693.97
2022-12-04T14:53:46.220Z,100691.94
2022-12-04T14:57:06.868Z,100699.03
2022-12-04T14:59:44.233Z,100693.97
2022-12-04T15:02:20.048Z,100691.38
2022-12-04T15:04:50.574Z,100699.59
2022-12-04T15:07:25.302Z,100698.84
2022-12-04T15:10:17.635Z,100696.03
2022-12-04T15:13:00.036Z,100694.31
2022-12-04T15:15:30.329Z,100701.34
2022-12-04T15:18:13.322Z,100700.00
2022-12-04T15:20:44.638Z,100706.69
2022-12-04T15:23:16.708Z,100699.66
2022-12-04T15:25:47.213Z,100707.59
2022-12-04T15:28:26.547Z,100718.41
2022-12-04T15:30:56.839Z,100714.94
2022-12-04T15:33:30.146Z,100719.38
2022-12-04T15:36:05.930Z,100721.94
2022-12-04T15:38:34.947Z,100726.28
2022-12-04T15:41:27.569Z,100727.28
2022-12-04T15:43:55.371Z,100726.34
2022-12-04T15:46:36.177Z,100724.56
2022-12-04T15:49:17.163Z,100736.72
2022-12-04T15:51:47.587Z,100737.97
2022-12-04T15:54:26.291Z,100742.16
2022-12-04T15:57:07.496Z,100755.34
2022-12-04T15:59:36.873Z,100757.16
2022-12-04T16:02:21.809Z,100751.78
2022-12-04T16:04:51.742Z,100744.59
2022-12-04T16:07:30.211Z,100753.91
2022-12-04T16:13:30.324Z,100755.28
2022-12-04T16:16:01.132Z,100763.84
2022-12-04T16:18:30.017Z,100768.44
2022-12-04T16:20:57.811Z,100780.78
2022-12-04T16:23:27.241Z,100782.47
2022-12-04T16:25:55.007Z,100782.38
2022-12-04T16:28:22.595Z,100782.41
2022-12-04T16:30:55.286Z,100784.22
2022-12-04T16:33:23.099Z,100779.78
2022-12-04T16:35:50.736Z,100773.75
2022-12-04T16:38:18.319Z,100780.72
2022-12-04T16:40:50.831Z,100801.09
2022-12-04T16:43:18.499Z,100799.44
2022-12-04T16:45:54.436Z,100809.81
2022-12-04T16:48:22.038Z,100802.78
2022-12-04T16:50:49.765Z,100808.91
2022-12-04T16:53:22.220Z,100822.19
2022-12-04T16:55:51.103Z,100807.97
2022-12-04T16:58:20.229Z,100818.47
2022-12-04T17:00:56.335Z,100830.75
2022-12-04T17:03:27.423Z,100829.88
2022-12-04T17:05:55.927Z,100835.91
2022-12-04T17:08:24.356Z,100831.53
2022-12-04T17:10:52.778Z,100828.09
2022-12-04T17:13:21.522Z,100828.97
2022-12-04T17:15:49.324Z,100831.59
2022-12-04T17:18:21.254Z,100832.59
2022-12-04T17:20:49.542Z,100832.53
2022-12-04T17:23:17.332Z,100843.91
2022-12-04T17:25:44.994Z,100829.81
2022-12-04T17:28:12.958Z,100838.63
2022-12-04T17:30:45.224Z,100847.53
2022-12-04T17:33:13.159Z,100839.75
2022-12-04T17:35:42.818Z,100850.28
2022-12-04T17:38:10.816Z,100852.84
2022-12-04T17:40:38.355Z,100846.63
2022-12-04T17:43:06.046Z,100845.97
2022-12-04T17:45:35.663Z,100846.84
2022-12-04T17:48:03.410Z,100843.31
2022-12-04T17:50:32.031Z,100851.13
2022-12-04T17:52:59.579Z,100837.09
2022-12-04T17:55:27.277Z,100851.19
2022-12-04T17:57:55.164Z,100859.97
2022-12-04T18:00:23.759Z,100846.81
2022-12-04T18:02:54.744Z,100862.66
2022-12-04T18:05:22.735Z,100866.94
2022-12-04T18:07:51.462Z,100872.19
2022-12-04T18:10:22.780Z,100860.81
2022-12-04T18:12:52.245Z,100868.66
2022-12-04T18:15:20.078Z,100869.53
2022-12-04T18:17:47.880Z,100875.72
2022-12-04T18:20:15.500Z,100882.69
2022-12-04T18:22:43.373Z,100880.03
2022-12-04T18:25:12.050Z,100886.19
2022-12-04T18:27:41.987Z,100888.88
2022-12-04T18:30:11.007Z,100881.00
2022-12-04T18:32:38.778Z,100877.53
2022-12-04T18:35:06.672Z,100885.41
2022-12-04T18:37:36.110Z,100891.56
2022-12-04T18:40:07.294Z,100874.00
2022-12-04T18:42:35.196Z,100874.06
2022-12-04T18:45:02.762Z,100880.16
2022-12-04T18:47:30.913Z,100878.44
2022-12-04T18:49:58.954Z,100874.03
2022-12-04T18:52:26.613Z,100872.25
2022-12-04T18:54:54.143Z,100877.53
2022-12-04T18:57:23.925Z,100867.03
2022-12-04T18:59:51.542Z,100876.66
2022-12-04T19:02:19.204Z,100885.31
2022-12-04T19:04:46.847Z,100886.28
2022-12-04T19:07:14.456Z,100902.06
2022-12-04T19:10:10.068Z,100906.44
2022-12-04T19:12:29.709Z,100905.53
2022-12-04T19:14:57.299Z,100906.41
2022-12-04T19:17:25.026Z,100913.44
2022-12-04T19:19:55.269Z,100916.94
2022-12-04T19:22:23.140Z,100923.00
2022-12-04T19:24:51.723Z,100917.66
2022-12-04T19:27:19.467Z,100923.00
2022-12-04T19:29:47.900Z,100929.13
2022-12-04T19:36:16.851Z,100942.34
2022-12-04T19:39:30.162Z,100950.28
2022-12-04T19:44:01.014Z,100959.06
2022-12-04T19:55:15.608Z,100970.41
2022-12-04T20:13:42.300Z,100995.84
2022-12-04T20:17:45.380Z,100996.72
2022-12-04T20:20:48.945Z,101014.28
2022-12-04T20:23:19.702Z,101002.00
2022-12-04T20:25:47.736Z,101008.16
2022-12-04T20:32:14.115Z,100994.97
2022-12-04T20:34:43.902Z,100990.56
2022-12-04T20:37:33.365Z,100996.75
2022-12-04T20:54:00.147Z,101021.28
2022-12-04T21:27:50.817Z,101011.63
2022-12-04T21:30:27.693Z,101009.00
2022-12-04T21:38:49.645Z,100996.75
2022-12-04T21:41:03.100Z,101009.88
2022-12-04T21:44:06.963Z,101006.25
2022-12-04T21:47:28.688Z,101017.75
2022-12-04T21:50:25.442Z,101020.31
2022-12-04T21:53:11.099Z,101015.91
2022-12-04T21:55:54.605Z,101011.59
2022-12-04T22:02:40.398Z,100989.72
2022-12-04T22:12:33.303Z,101010.78
2022-12-04T22:15:24.227Z,101014.25
2022-12-04T22:17:57.247Z,101009.00
2022-12-04T22:20:37.917Z,101004.66
2022-12-04T22:23:10.266Z,101009.88
2022-12-04T22:25:39.472Z,101005.44
2022-12-04T22:28:24.718Z,101008.06
2022-12-04T22:31:33.744Z,101007.25
2022-12-04T22:35:06.611Z,101004.63
2022-12-04T22:38:19.135Z,100995.88
2022-12-04T22:41:01.730Z,100994.97
2022-12-04T22:43:46.158Z,101000.22
2022-12-04T22:46:36.790Z,101008.13
2022-12-04T22:49:14.776Z,101012.50
2022-12-04T22:51:50.817Z,101010.72
2022-12-04T22:54:36.191Z,101010.72
2022-12-04T22:57:14.146Z,101009.00
2022-12-04T22:59:42.843Z,101006.38
2022-12-04T23:02:10.531Z,101001.13
2022-12-04T23:04:38.567Z,101002.00
2022-12-04T23:07:06.250Z,101004.63
2022-12-04T23:09:34.341Z,100999.38
2022-12-04T23:12:02.032Z,100994.09
2022-12-04T23:14:29.623Z,101006.38
2022-12-04T23:16:57.191Z,101001.97
2022-12-04T23:19:24.691Z,100998.47
2022-12-04T23:21:56.829Z,100996.75
2022-12-04T23:24:26.227Z,100998.47
2022-12-04T23:26:53.832Z,100998.47
2022-12-04T23:29:52.109Z,100994.09
2022-12-04T23:32:08.901Z,100977.44
2022-12-04T23:34:36.439Z,100980.06
2022-12-04T23:37:04.002Z,100974.81
2022-12-04T23:39:31.517Z,100991.50
2022-12-04T23:41:59.007Z,100991.50
2022-12-04T23:44:26.453Z,100997.63
2022-12-04T23:46:53.962Z,101001.09
2022-12-04T23:49:21.546Z,100985.34
2022-12-04T23:51:49.052Z,100988.84
2022-12-04T23:54:16.610Z,100992.34
2022-12-04T23:56:44.174Z,101001.09
2022-12-04T23:59:11.479Z,101013.41
